« 難破船 富山市岩瀬浜 2024/2/8 thu | トップページ | 難破船 伏木富山港 2024/2/10 sat »

2024/02/08

定点 富山空港 2024/2/8 thu

今日は、難破船を確認してから、「いず」の入港をみていたので、神通川河口からスタート。

RJNT 080100Z 19005KT 9999 FEW020 SCT060 BKN070 04/01 Q1019

20240208_rjnt_00ja57an

20240208_rjnt_01ja57an

ANA315 RJTT-RJNT JA57AN B737-881

RJNT 080200Z 20003KT 9999 FEW020 SCT060 BKN070 06/00 Q1019

20240208_rjnt_02ja57an

20240208_rjnt_03ja57an

20240208_rjnt_04ja57an

ANA316 RJNT-RJTT JA57AN B737-881

RJNT 080300Z 25005KT 9999 FEW020 SCT060 BKN070 06/M01 Q1019

20240208_rjnt_05ja69an

20240208_rjnt_06ja69an

20240208_rjnt_07ja69an

ANA1182 RJCC-RJNT JA69AN B737-881

RJNT 080400Z 24005KT 9999 FEW020 SCT050 BKN070 06/M01 Q1018

20240208_rjnt_08ja69an

20240208_rjnt_09ja69an

20240208_rjnt_10ja69an

ANA1181 RJNT-RJCC JA69AN B737-881

20240208_rjnt_11ja6512

JA6512↑ AS350B3 AKF

20240208_rjnt_12toyama

おや、硬い雪を排雪してたら、ぶっ壊れたけ

20240208_rjnt_13ja139t

20240208_rjnt_14ja139t

JA139T↑ AW139 富山県警察

20240208_rjnt_15ja139t

県内飛行、能登の支援は警視庁とか大阪府警とか石川県警HPから支援している模様。

 

 

|

« 難破船 富山市岩瀬浜 2024/2/8 thu | トップページ | 難破船 伏木富山港 2024/2/10 sat »

富山空港」カテゴリの記事

コメント

コメントを書く



(ウェブ上には掲載しません)


コメントは記事投稿者が公開するまで表示されません。



« 難破船 富山市岩瀬浜 2024/2/8 thu | トップページ | 難破船 伏木富山港 2024/2/10 sat »